Time;durP1;ratioP1;P1;durP2;ratioP2;P2;SDS_P1;SDS_P2;PMS_P1;PMS_P2;Temp;Humidity;BMP_temperature;BMP_pressure;BME280_temperature;BME280_humidity;BME280_pressure;Samples;Min_cycle;Max_cycle;Signal;HPM_P1;HPM_P2
2022/07/06 00:01:21;;;;;;;0.00;0.00;;;;;;;;;;5026088;28;20080;-73
2022/07/06 00:03:49;;;;;;;0.30;0.30;;;;;;;;;;5024762;28;20136;-73
2022/07/06 00:06:23;;;;;;;0.10;0.10;;;;;;;;;;5023093;28;20132;-73
2022/07/06 00:08:52;;;;;;;0.10;0.10;;;;;;;;;;5021157;28;20444;-74
2022/07/06 00:11:30;;;;;;;0.10;0.10;;;;;;;;;;5027473;28;20128;-74
2022/07/06 00:13:58;;;;;;;0.20;0.20;;;;;;;;;;5026422;28;20077;-73
2022/07/06 00:16:28;;;;;;;0.10;0.10;;;;;;;;;;5026451;28;20100;-73
2022/07/06 00:18:56;;;;;;;1.70;0.40;;;;;;;;;;5021457;28;20093;-73
2022/07/06 00:21:25;;;;;;;0.10;0.10;;;;;;;;;;5025925;28;20129;-73
2022/07/06 00:23:54;;;;;;;0.00;0.00;;;;;;;;;;5026326;28;20140;-73
2022/07/06 00:26:29;;;;;;;0.15;0.15;;;;;;;;;;5025864;28;20080;-74
2022/07/06 00:28:57;;;;;;;0.10;0.10;;;;;;;;;;5029111;28;20128;-77
2022/07/06 00:31:26;;;;;;;0.10;0.10;;;;;;;;;;5026360;28;20521;-72
2022/07/06 00:33:54;;;;;;;0.20;0.20;;;;;;;;;;5025719;28;21549;-73
2022/07/06 00:36:22;;;;;;;0.25;0.13;;;;;;;;;;5026182;28;20140;-73
2022/07/06 00:38:51;;;;;;;0.20;0.20;;;;;;;;;;5027652;28;20045;-73
2022/07/06 00:41:24;;;;;;;0.30;0.30;;;;;;;;;;5025423;28;20157;-73
2022/07/06 00:43:55;;;;;;;0.17;0.17;;;;;;;;;;5027228;28;20073;-73
2022/07/06 00:46:25;;;;;;;1.75;0.30;;;;;;;;;;5026398;28;20041;-73
2022/07/06 00:48:53;;;;;;;0.15;0.13;;;;;;;;;;5025820;28;20425;-72
2022/07/06 00:51:23;;;;;;;0.30;0.20;;;;;;;;;;5025595;28;20050;-73
2022/07/06 00:53:52;;;;;;;0.10;0.10;;;;;;;;;;5031483;28;20041;-73
2022/07/06 00:56:25;;;;;;;0.17;0.17;;;;;;;;;;5027794;28;20442;-75
2022/07/06 00:58:53;;;;;;;0.57;0.45;;;;;;;;;;5023692;28;20132;-73
2022/07/06 01:01:34;;;;;;;0.20;0.20;;;;;;;;;;5027209;28;20117;-73
2022/07/06 01:04:02;;;;;;;0.55;0.55;;;;;;;;;;5027137;28;20037;-75
2022/07/06 01:06:30;;;;;;;0.20;0.20;;;;;;;;;;5028867;28;20496;-73
2022/07/06 01:09:00;;;;;;;0.10;0.10;;;;;;;;;;5028821;28;20054;-73
2022/07/06 01:11:30;;;;;;;0.32;0.15;;;;;;;;;;5028668;28;20140;-74
2022/07/06 01:13:59;;;;;;;1.25;0.43;;;;;;;;;;5030933;28;20136;-74
2022/07/06 01:16:30;;;;;;;0.20;0.20;;;;;;;;;;5027856;28;20047;-74
2022/07/06 01:18:59;;;;;;;0.35;0.35;;;;;;;;;;5029342;28;20065;-74
2022/07/06 01:21:31;;;;;;;0.80;0.10;;;;;;;;;;5027736;28;20069;-75
2022/07/06 01:24:00;;;;;;;0.35;0.35;;;;;;;;;;5027430;28;20128;-73
2022/07/06 01:26:28;;;;;;;0.55;0.20;;;;;;;;;;5027445;28;20076;-77
2022/07/06 01:28:57;;;;;;;0.13;0.13;;;;;;;;;;5028751;28;20148;-73
2022/07/06 01:31:34;;;;;;;0.20;0.20;;;;;;;;;;5026687;28;20478;-73
2022/07/06 01:34:03;;;;;;;0.32;0.20;;;;;;;;;;5027236;28;20176;-73
2022/07/06 01:36:32;;;;;;;0.10;0.10;;;;;;;;;;5024792;28;20058;-73
2022/07/06 01:39:01;;;;;;;0.20;0.20;;;;;;;;;;5026417;28;20093;-74
2022/07/06 01:41:29;;;;;;;0.30;0.20;;;;;;;;;;5024618;28;20084;-73
2022/07/06 01:43:58;;;;;;;0.15;0.15;;;;;;;;;;5029255;28;20103;-74
2022/07/06 01:46:41;;;;;;;0.20;0.20;;;;;;;;;;5028168;28;20093;-77
2022/07/06 01:49:09;;;;;;;0.10;0.10;;;;;;;;;;5028258;28;20077;-75
2022/07/06 01:51:39;;;;;;;0.10;0.10;;;;;;;;;;5028418;28;20476;-74
2022/07/06 01:54:08;;;;;;;0.10;0.10;;;;;;;;;;5027441;28;20128;-74
2022/07/06 01:56:36;;;;;;;0.28;0.28;;;;;;;;;;5029100;28;20148;-73
2022/07/06 01:59:04;;;;;;;0.10;0.10;;;;;;;;;;5028758;28;20132;-74
2022/07/06 02:01:33;;;;;;;0.52;0.52;;;;;;;;;;5026650;28;20167;-74
2022/07/06 02:04:01;;;;;;;0.38;0.35;;;;;;;;;;5028271;28;20041;-74
2022/07/06 02:06:30;;;;;;;0.10;0.10;;;;;;;;;;5026986;28;20041;-75
2022/07/06 02:09:00;;;;;;;1.15;0.60;;;;;;;;;;5027508;28;20049;-77
2022/07/06 02:11:28;;;;;;;0.20;0.20;;;;;;;;;;5028099;28;20163;-74
2022/07/06 02:13:57;;;;;;;0.20;0.20;;;;;;;;;;5029655;28;20152;-76
2022/07/06 02:16:25;;;;;;;0.22;0.20;;;;;;;;;;5029015;28;20118;-73
2022/07/06 02:18:53;;;;;;;0.32;0.32;;;;;;;;;;5026923;28;20048;-73
2022/07/06 02:21:22;;;;;;;0.15;0.15;;;;;;;;;;5027990;28;20485;-73
2022/07/06 02:23:50;;;;;;;0.65;0.50;;;;;;;;;;5027648;28;20184;-73
2022/07/06 02:26:23;;;;;;;0.20;0.20;;;;;;;;;;5023475;28;20083;-75
2022/07/06 02:28:51;;;;;;;0.20;0.20;;;;;;;;;;5025873;28;20125;-73
2022/07/06 02:31:22;;;;;;;0.05;0.05;;;;;;;;;;5025091;28;20045;-73
2022/07/06 02:33:51;;;;;;;1.65;0.30;;;;;;;;;;5028203;28;20165;-75
2022/07/06 02:36:41;;;;;;;0.47;0.25;;;;;;;;;;5027306;28;20057;-74
2022/07/06 02:39:09;;;;;;;0.30;0.30;;;;;;;;;;5028718;28;20132;-74
2022/07/06 02:41:39;;;;;;;0.30;0.30;;;;;;;;;;5024990;28;20140;-76
2022/07/06 02:44:07;;;;;;;0.50;0.43;;;;;;;;;;5030214;28;20128;-73
2022/07/06 02:46:45;;;;;;;0.20;0.20;;;;;;;;;;5026739;28;20129;-73
2022/07/06 02:49:13;;;;;;;0.30;0.30;;;;;;;;;;5025418;28;20051;-73
2022/07/06 02:51:41;;;;;;;1.30;0.28;;;;;;;;;;5024114;28;20088;-73
2022/07/06 02:54:10;;;;;;;0.20;0.20;;;;;;;;;;5026431;28;20482;-73
2022/07/06 02:56:40;;;;;;;1.27;0.57;;;;;;;;;;5027689;28;20699;-74
2022/07/06 02:59:08;;;;;;;0.22;0.22;;;;;;;;;;5027150;28;20045;-75
2022/07/06 03:01:41;;;;;;;0.22;0.22;;;;;;;;;;5025359;28;20052;-73
2022/07/06 03:04:10;;;;;;;0.10;0.10;;;;;;;;;;5025708;28;20551;-76
2022/07/06 03:06:38;;;;;;;0.20;0.20;;;;;;;;;;5025965;28;20065;-74
2022/07/06 03:09:07;;;;;;;0.28;0.28;;;;;;;;;;5027631;28;20077;-73
2022/07/06 03:11:35;;;;;;;0.43;0.32;;;;;;;;;;5024337;28;20105;-73
2022/07/06 03:14:06;;;;;;;0.00;0.00;;;;;;;;;;5027808;28;20046;-73
2022/07/06 03:16:34;;;;;;;0.20;0.20;;;;;;;;;;5024764;28;21251;-73
2022/07/06 03:19:03;;;;;;;2.75;1.25;;;;;;;;;;5024689;28;20077;-73
2022/07/06 03:21:31;;;;;;;0.10;0.10;;;;;;;;;;5025702;28;20046;-73
2022/07/06 03:24:00;;;;;;;0.50;0.20;;;;;;;;;;5026240;28;21771;-74
2022/07/06 03:26:28;;;;;;;0.08;0.08;;;;;;;;;;5023355;28;20056;-75
2022/07/06 03:28:57;;;;;;;0.20;0.20;;;;;;;;;;5027846;28;20471;-73
2022/07/06 03:31:29;;;;;;;0.40;0.40;;;;;;;;;;5024632;28;20041;-79
2022/07/06 03:33:58;;;;;;;0.15;0.15;;;;;;;;;;5026086;28;20045;-74
2022/07/06 03:36:26;;;;;;;0.25;0.25;;;;;;;;;;5027756;28;20140;-73
2022/07/06 03:38:54;;;;;;;0.15;0.15;;;;;;;;;;5024898;28;20041;-73
2022/07/06 03:41:26;;;;;;;0.20;0.20;;;;;;;;;;5025916;28;21589;-73
2022/07/06 03:43:54;;;;;;;0.45;0.20;;;;;;;;;;5026335;28;20073;-73
2022/07/06 03:46:36;;;;;;;0.17;0.17;;;;;;;;;;5029670;28;20136;-73
2022/07/06 03:49:04;;;;;;;0.35;0.35;;;;;;;;;;5025717;28;20523;-73
2022/07/06 03:51:33;;;;;;;0.10;0.10;;;;;;;;;;5013896;28;20100;-73
2022/07/06 03:54:01;;;;;;;0.20;0.20;;;;;;;;;;5025442;28;20057;-76
2022/07/06 03:56:29;;;;;;;0.45;0.45;;;;;;;;;;5025469;28;20083;-75
2022/07/06 03:58:58;;;;;;;0.30;0.30;;;;;;;;;;5025837;28;20546;-74
2022/07/06 04:01:37;;;;;;;0.32;0.32;;;;;;;;;;5026426;28;20552;-73
2022/07/06 04:04:05;;;;;;;0.15;0.13;;;;;;;;;;5027394;28;20401;-73
2022/07/06 04:06:34;;;;;;;0.30;0.30;;;;;;;;;;5028828;28;20041;-74
2022/07/06 04:09:03;;;;;;;0.10;0.10;;;;;;;;;;5023731;28;20125;-74
2022/07/06 04:11:31;;;;;;;0.30;0.30;;;;;;;;;;5023978;28;22029;-77
2022/07/06 04:13:59;;;;;;;0.20;0.20;;;;;;;;;;5025002;28;20505;-73
2022/07/06 04:16:28;;;;;;;0.10;0.10;;;;;;;;;;5027456;28;20501;-74
2022/07/06 04:18:58;;;;;;;0.22;0.22;;;;;;;;;;5027446;28;20041;-74
2022/07/06 04:21:26;;;;;;;2.38;0.40;;;;;;;;;;5025123;28;20091;-72
2022/07/06 04:23:55;;;;;;;0.50;0.43;;;;;;;;;;5028274;28;20128;-73
2022/07/06 04:26:23;;;;;;;0.40;0.40;;;;;;;;;;5028239;28;20437;-73
2022/07/06 04:28:51;;;;;;;0.80;0.80;;;;;;;;;;5030967;28;20089;-73
2022/07/06 04:31:23;;;;;;;0.30;0.30;;;;;;;;;;5030755;28;20136;-74
2022/07/06 04:33:52;;;;;;;0.20;0.20;;;;;;;;;;5028308;28;20064;-73
2022/07/06 04:36:37;;;;;;;1.05;1.00;;;;;;;;;;5029952;28;20132;-73
2022/07/06 04:39:05;;;;;;;0.38;0.38;;;;;;;;;;5024137;28;20096;-73
2022/07/06 04:41:39;;;;;;;0.30;0.30;;;;;;;;;;5033492;28;20120;-73
2022/07/06 04:44:08;;;;;;;2.35;0.55;;;;;;;;;;5031218;28;20444;-74
2022/07/06 04:46:36;;;;;;;0.68;0.55;;;;;;;;;;5024754;28;20125;-76
2022/07/06 04:49:05;;;;;;;0.10;0.10;;;;;;;;;;5025594;28;20141;-73
2022/07/06 04:51:33;;;;;;;0.10;0.10;;;;;;;;;;5021021;28;20073;-75
2022/07/06 04:54:04;;;;;;;0.15;0.15;;;;;;;;;;5026077;28;20137;-72
2022/07/06 04:56:32;;;;;;;0.20;0.20;;;;;;;;;;5023213;28;20438;-72
2022/07/06 04:59:01;;;;;;;0.13;0.13;;;;;;;;;;5023646;28;20128;-72
2022/07/06 05:01:38;;;;;;;0.20;0.20;;;;;;;;;;5028162;28;20107;-72
2022/07/06 05:04:07;;;;;;;0.30;0.30;;;;;;;;;;5018548;28;20496;-73
2022/07/06 05:06:35;;;;;;;0.47;0.47;;;;;;;;;;5016899;28;20132;-73
2022/07/06 05:09:05;;;;;;;0.32;0.32;;;;;;;;;;5024174;28;20092;-73
2022/07/06 05:11:33;;;;;;;0.45;0.22;;;;;;;;;;5023373;28;20631;-72
2022/07/06 05:14:01;;;;;;;0.30;0.30;;;;;;;;;;5025176;28;20060;-73
2022/07/06 05:16:30;;;;;;;0.20;0.20;;;;;;;;;;5022452;28;20054;-72
2022/07/06 05:18:58;;;;;;;0.50;0.43;;;;;;;;;;5027817;28;20075;-72
2022/07/06 05:21:27;;;;;;;0.10;0.10;;;;;;;;;;5026897;28;20202;-72
2022/07/06 05:23:55;;;;;;;0.28;0.20;;;;;;;;;;5027000;28;20558;-73
2022/07/06 05:26:34;;;;;;;0.25;0.25;;;;;;;;;;5026422;28;20050;-72
2022/07/06 05:29:02;;;;;;;0.25;0.15;;;;;;;;;;5026095;28;20052;-73
2022/07/06 05:31:31;;;;;;;0.75;0.35;;;;;;;;;;5020386;28;20095;-72
2022/07/06 05:33:59;;;;;;;0.00;0.00;;;;;;;;;;5020402;28;20038;-72
2022/07/06 05:36:30;;;;;;;0.03;0.03;;;;;;;;;;5017247;28;20140;-75
2022/07/06 05:38:59;;;;;;;0.30;0.30;;;;;;;;;;5019279;28;20046;-75
2022/07/06 05:41:35;;;;;;;0.17;0.17;;;;;;;;;;5020578;28;20138;-73
2022/07/06 05:44:03;;;;;;;0.32;0.32;;;;;;;;;;5012960;28;20077;-72
2022/07/06 05:46:31;;;;;;;0.20;0.20;;;;;;;;;;5019105;28;20076;-72
2022/07/06 05:51:46;;;;;;;0.10;0.10;;;;;;;;;;5022439;28;20602;-73
2022/07/06 05:54:14;;;;;;;0.20;0.20;;;;;;;;;;5028492;28;20050;-72
2022/07/06 05:56:44;;;;;;;0.20;0.20;;;;;;;;;;5030605;28;20045;-70
2022/07/06 05:59:12;;;;;;;0.10;0.10;;;;;;;;;;5033297;28;20105;-70
2022/07/06 06:01:41;;;;;;;0.10;0.10;;;;;;;;;;5033796;28;20127;-71
2022/07/06 06:04:09;;;;;;;0.20;0.15;;;;;;;;;;5032578;28;20462;-71
2022/07/06 06:06:37;;;;;;;0.95;0.47;;;;;;;;;;5033689;28;20084;-72
2022/07/06 06:09:06;;;;;;;0.10;0.10;;;;;;;;;;5032255;28;20056;-71
2022/07/06 06:11:34;;;;;;;0.13;0.13;;;;;;;;;;5032164;28;20132;-71
2022/07/06 06:14:04;;;;;;;0.03;0.03;;;;;;;;;;5032440;28;20092;-70
2022/07/06 06:16:33;;;;;;;0.00;0.00;;;;;;;;;;5032482;28;20088;-70
2022/07/06 06:19:01;;;;;;;0.10;0.10;;;;;;;;;;5032222;28;20492;-70
2022/07/06 06:21:30;;;;;;;0.20;0.20;;;;;;;;;;5031939;28;20084;-71
2022/07/06 06:23:58;;;;;;;0.50;0.40;;;;;;;;;;5030803;28;20140;-71
2022/07/06 06:26:27;;;;;;;0.25;0.25;;;;;;;;;;5031944;28;20038;-70
2022/07/06 06:28:55;;;;;;;0.10;0.10;;;;;;;;;;5032059;28;20068;-70
2022/07/06 06:31:25;;;;;;;0.25;0.25;;;;;;;;;;5031792;28;20497;-71
2022/07/06 06:33:54;;;;;;;1.35;0.10;;;;;;;;;;5031880;28;20520;-70
2022/07/06 06:36:22;;;;;;;0.20;0.20;;;;;;;;;;5030548;28;20084;-71
2022/07/06 06:38:50;;;;;;;0.10;0.10;;;;;;;;;;5030138;28;20103;-70
2022/07/06 06:41:24;;;;;;;0.82;0.35;;;;;;;;;;5031642;28;20057;-71
2022/07/06 06:43:52;;;;;;;0.10;0.10;;;;;;;;;;5031080;28;20068;-71
2022/07/06 06:46:21;;;;;;;0.17;0.17;;;;;;;;;;5030399;28;20056;-71
2022/07/06 06:48:50;;;;;;;0.00;0.00;;;;;;;;;;5031854;28;20435;-71
2022/07/06 06:51:25;;;;;;;0.10;0.10;;;;;;;;;;5031658;28;20092;-70
2022/07/06 06:53:54;;;;;;;0.00;0.00;;;;;;;;;;5030659;28;20140;-71
2022/07/06 06:56:31;;;;;;;0.10;0.10;;;;;;;;;;5031427;28;20111;-70
2022/07/06 06:59:01;;;;;;;0.08;0.08;;;;;;;;;;5031246;28;20072;-71
2022/07/06 07:01:46;;;;;;;0.10;0.10;;;;;;;;;;5031693;28;20083;-71
2022/07/06 07:04:24;;;;;;;0.10;0.10;;;;;;;;;;5027691;28;20413;-70
2022/07/06 07:06:53;;;;;;;0.00;0.00;;;;;;;;;;5028151;28;20497;-71
2022/07/06 07:09:21;;;;;;;0.10;0.10;;;;;;;;;;5026193;28;20493;-74
2022/07/06 07:11:50;;;;;;;0.40;0.32;;;;;;;;;;5029006;28;20048;-71
2022/07/06 07:14:18;;;;;;;0.50;0.15;;;;;;;;;;5030482;28;20084;-71
2022/07/06 07:16:47;;;;;;;0.20;0.20;;;;;;;;;;5030457;28;20080;-71
2022/07/06 07:19:15;;;;;;;0.10;0.10;;;;;;;;;;5031200;28;20104;-71
2022/07/06 07:21:45;;;;;;;0.15;0.15;;;;;;;;;;5029226;28;20068;-70
2022/07/06 07:24:14;;;;;;;0.43;0.32;;;;;;;;;;5028995;28;20052;-70
2022/07/06 07:26:43;;;;;;;0.20;0.20;;;;;;;;;;5028778;28;20045;-68
2022/07/06 07:29:11;;;;;;;0.30;0.30;;;;;;;;;;5023969;28;20421;-70
2022/07/06 07:31:40;;;;;;;0.10;0.10;;;;;;;;;;5027837;28;20460;-70
2022/07/06 07:34:09;;;;;;;0.10;0.10;;;;;;;;;;5018806;28;20056;-70
2022/07/06 07:36:38;;;;;;;0.30;0.10;;;;;;;;;;5016839;28;20086;-67
2022/07/06 07:39:08;;;;;;;0.13;0.13;;;;;;;;;;5029374;28;20513;-70
2022/07/06 07:41:40;;;;;;;0.00;0.00;;;;;;;;;;5021826;28;20054;-70
2022/07/06 07:44:09;;;;;;;0.35;0.35;;;;;;;;;;5017875;28;20092;-70
2022/07/06 07:46:38;;;;;;;0.10;0.10;;;;;;;;;;5013147;28;20049;-69
2022/07/06 07:49:07;;;;;;;0.00;0.00;;;;;;;;;;5022884;28;20096;-70
2022/07/06 07:51:36;;;;;;;0.10;0.10;;;;;;;;;;5023905;28;20073;-70
2022/07/06 07:54:04;;;;;;;0.30;0.30;;;;;;;;;;5012148;28;20045;-70
2022/07/06 07:56:35;;;;;;;0.20;0.20;;;;;;;;;;5016153;28;20057;-69
2022/07/06 07:59:04;;;;;;;0.32;0.20;;;;;;;;;;5031956;28;20436;-71
2022/07/06 08:01:32;;;;;;;1.05;0.30;;;;;;;;;;5032349;28;20045;-70
2022/07/06 08:04:02;;;;;;;0.10;0.10;;;;;;;;;;5033675;28;20053;-70
2022/07/06 08:06:30;;;;;;;0.13;0.13;;;;;;;;;;5024251;28;20048;-70
2022/07/06 08:09:00;;;;;;;0.20;0.15;;;;;;;;;;5027912;28;20042;-71
2022/07/06 08:11:29;;;;;;;0.20;0.20;;;;;;;;;;5033205;28;20054;-71
2022/07/06 08:13:59;;;;;;;0.10;0.10;;;;;;;;;;5021580;28;20052;-70
2022/07/06 08:16:27;;;;;;;0.00;0.00;;;;;;;;;;5016539;28;20407;-70
2022/07/06 08:18:56;;;;;;;0.05;0.05;;;;;;;;;;5018503;28;20042;-70
2022/07/06 08:21:43;;;;;;;0.28;0.20;;;;;;;;;;5017378;28;20449;-71
2022/07/06 08:24:12;;;;;;;0.25;0.25;;;;;;;;;;5018144;28;20080;-71
2022/07/06 08:26:41;;;;;;;0.10;0.10;;;;;;;;;;5031396;28;20056;-70
2022/07/06 08:29:11;;;;;;;0.52;0.30;;;;;;;;;;5033048;28;20045;-70
2022/07/06 08:31:40;;;;;;;0.17;0.17;;;;;;;;;;5018970;28;20053;-71
2022/07/06 08:34:28;;;;;;;0.10;0.10;;;;;;;;;;5017772;28;20052;-70
2022/07/06 08:37:01;;;;;;;0.28;0.28;;;;;;;;;;5026930;28;20210;-70
2022/07/06 08:39:30;;;;;;;0.03;0.03;;;;;;;;;;5028606;28;20041;-73
2022/07/06 08:42:00;;;;;;;0.00;0.00;;;;;;;;;;5030474;28;20053;-70
2022/07/06 08:44:31;;;;;;;0.08;0.08;;;;;;;;;;5018317;28;20498;-71
2022/07/06 08:47:04;;;;;;;0.13;0.13;;;;;;;;;;5016522;28;20421;-72
2022/07/06 08:49:34;;;;;;;0.10;0.10;;;;;;;;;;5021239;28;20492;-70
2022/07/06 08:52:09;;;;;;;0.28;0.20;;;;;;;;;;5018567;28;20103;-70
2022/07/06 08:54:39;;;;;;;0.95;0.60;;;;;;;;;;5023007;28;20444;-69
2022/07/06 08:57:08;;;;;;;0.20;0.20;;;;;;;;;;5022103;28;20050;-71
2022/07/06 08:59:40;;;;;;;0.00;0.00;;;;;;;;;;5022909;28;20042;-71
2022/07/06 09:02:10;;;;;;;0.40;0.40;;;;;;;;;;5032808;28;20042;-71
2022/07/06 09:04:40;;;;;;;0.10;0.10;;;;;;;;;;5019523;28;20042;-71
2022/07/06 09:07:09;;;;;;;0.88;0.28;;;;;;;;;;5026158;28;20057;-72
2022/07/06 09:09:38;;;;;;;0.22;0.22;;;;;;;;;;5017942;28;20057;-74
2022/07/06 09:12:11;;;;;;;1.33;0.82;;;;;;;;;;5017823;28;20042;-70
2022/07/06 09:14:41;;;;;;;0.20;0.20;;;;;;;;;;5015607;28;20081;-68
2022/07/06 09:17:11;;;;;;;0.22;0.17;;;;;;;;;;5027180;28;20042;-70
2022/07/06 09:19:46;;;;;;;0.10;0.10;;;;;;;;;;5022893;28;20049;-70
2022/07/06 09:22:26;;;;;;;0.47;0.35;;;;;;;;;;5020735;28;20045;-72
2022/07/06 09:24:55;;;;;;;1.20;0.22;;;;;;;;;;5020973;28;20042;-70
2022/07/06 09:27:24;;;;;;;0.20;0.20;;;;;;;;;;5031784;28;20041;-70
2022/07/06 09:29:54;;;;;;;0.10;0.10;;;;;;;;;;5032923;28;20053;-70
2022/07/06 09:32:23;;;;;;;0.45;0.38;;;;;;;;;;5032505;28;20148;-70
2022/07/06 09:34:51;;;;;;;0.10;0.10;;;;;;;;;;5039715;28;20119;-71
2022/07/06 09:37:20;;;;;;;0.30;0.20;;;;;;;;;;5021345;28;20079;-70
2022/07/06 09:39:54;;;;;;;0.20;0.20;;;;;;;;;;5032814;28;20452;-70
2022/07/06 09:42:26;;;;;;;0.38;0.30;;;;;;;;;;5032089;28;20485;-69
2022/07/06 09:44:56;;;;;;;0.20;0.20;;;;;;;;;;5028821;28;20481;-70
2022/07/06 09:47:24;;;;;;;0.28;0.28;;;;;;;;;;5031839;28;20081;-70
2022/07/06 09:49:57;;;;;;;0.25;0.25;;;;;;;;;;5032686;28;20412;-70
2022/07/06 09:52:25;;;;;;;0.30;0.30;;;;;;;;;;5032773;28;20056;-70
2022/07/06 09:54:54;;;;;;;0.30;0.15;;;;;;;;;;5032789;28;20497;-70
2022/07/06 09:57:23;;;;;;;0.40;0.22;;;;;;;;;;5026823;28;20115;-71
2022/07/06 09:59:52;;;;;;;0.28;0.28;;;;;;;;;;5032218;28;20045;-70
2022/07/06 10:02:23;;;;;;;0.22;0.13;;;;;;;;;;5032475;28;20056;-70
2022/07/06 10:04:52;;;;;;;0.10;0.10;;;;;;;;;;5032580;28;20069;-69
2022/07/06 10:07:22;;;;;;;0.13;0.13;;;;;;;;;;5030416;28;20049;-71
2022/07/06 10:09:51;;;;;;;0.20;0.20;;;;;;;;;;5032055;28;20056;-70
2022/07/06 10:12:21;;;;;;;0.10;0.10;;;;;;;;;;5030522;28;20049;-71
2022/07/06 10:14:51;;;;;;;0.20;0.20;;;;;;;;;;5031941;28;20334;-70
2022/07/06 10:17:20;;;;;;;0.30;0.25;;;;;;;;;;5030168;28;20302;-71
2022/07/06 10:19:51;;;;;;;0.40;0.20;;;;;;;;;;5023535;28;20512;-70
2022/07/06 10:22:20;;;;;;;0.32;0.32;;;;;;;;;;5024656;28;20061;-70
2022/07/06 10:24:49;;;;;;;0.35;0.30;;;;;;;;;;5027810;28;20095;-70
2022/07/06 10:27:18;;;;;;;0.20;0.20;;;;;;;;;;5025174;28;20049;-70
2022/07/06 10:29:46;;;;;;;0.10;0.10;;;;;;;;;;5031245;28;20140;-70
2022/07/06 10:32:18;;;;;;;0.20;0.20;;;;;;;;;;5027314;28;20095;-70
2022/07/06 10:34:47;;;;;;;0.17;0.17;;;;;;;;;;5029625;28;20564;-70
2022/07/06 10:37:25;;;;;;;0.10;0.10;;;;;;;;;;5026048;28;20061;-70
2022/07/06 10:42:49;;;;;;;0.20;0.20;;;;;;;;;;5026059;28;20085;-71
2022/07/06 10:45:21;;;;;;;0.30;0.30;;;;;;;;;;5018485;28;20387;-70
2022/07/06 10:48:10;;;;;;;2.55;1.10;;;;;;;;;;5013217;28;20077;-70
2022/07/06 10:50:39;;;;;;;0.20;0.20;;;;;;;;;;5021467;28;20489;-70
2022/07/06 10:53:13;;;;;;;0.45;0.30;;;;;;;;;;5016852;28;20575;-70
2022/07/06 10:55:42;;;;;;;2.53;0.73;;;;;;;;;;5023989;28;20073;-70
2022/07/06 10:58:11;;;;;;;0.20;0.20;;;;;;;;;;5028776;28;20077;-70
2022/07/06 11:00:52;;;;;;;0.03;0.03;;;;;;;;;;5031122;28;20124;-71
2022/07/06 11:03:35;;;;;;;0.10;0.10;;;;;;;;;;5030897;28;20045;-71
2022/07/06 11:06:06;;;;;;;0.50;0.30;;;;;;;;;;5020347;28;20037;-72
2022/07/06 11:08:49;;;;;;;0.22;0.20;;;;;;;;;;5025996;28;20053;-71
2022/07/06 11:11:51;;;;;;;0.63;0.63;;;;;;;;;;5010398;28;20543;-71
2022/07/06 11:14:19;;;;;;;0.13;0.13;;;;;;;;;;5024217;28;20041;-70
2022/07/06 11:17:09;;;;;;;1.13;0.40;;;;;;;;;;5029058;28;20057;-71
2022/07/06 11:19:38;;;;;;;0.30;0.10;;;;;;;;;;5026866;28;20453;-68
2022/07/06 11:22:07;;;;;;;0.20;0.20;;;;;;;;;;5030349;28;20053;-69
2022/07/06 11:24:38;;;;;;;0.20;0.20;;;;;;;;;;5030204;28;20038;-68
2022/07/06 11:27:08;;;;;;;1.55;0.32;;;;;;;;;;5023312;28;20061;-68
2022/07/06 11:29:38;;;;;;;0.22;0.10;;;;;;;;;;5026027;28;20072;-69
2022/07/06 11:32:16;;;;;;;0.30;0.30;;;;;;;;;;5024453;28;20103;-69
2022/07/06 11:34:45;;;;;;;0.20;0.17;;;;;;;;;;5023241;28;20128;-72
2022/07/06 11:37:14;;;;;;;0.30;0.15;;;;;;;;;;5018946;28;20049;-71
2022/07/06 11:39:44;;;;;;;0.20;0.20;;;;;;;;;;5029041;28;20045;-71
2022/07/06 11:42:38;;;;;;;0.08;0.08;;;;;;;;;;5025823;28;20486;-71
2022/07/06 11:45:07;;;;;;;0.10;0.10;;;;;;;;;;5030802;28;20049;-73
2022/07/06 11:47:36;;;;;;;0.20;0.20;;;;;;;;;;5029140;28;20140;-70
2022/07/06 11:50:05;;;;;;;0.25;0.10;;;;;;;;;;5029319;28;20413;-72
2022/07/06 11:52:55;;;;;;;0.25;0.20;;;;;;;;;;5033944;28;20132;-70
2022/07/06 11:55:24;;;;;;;0.38;0.32;;;;;;;;;;5024587;28;20080;-70
2022/07/06 11:57:56;;;;;;;0.43;0.20;;;;;;;;;;5027422;28;20053;-70
2022/07/06 12:00:24;;;;;;;0.20;0.20;;;;;;;;;;5028943;28;20494;-71
2022/07/06 12:03:00;;;;;;;0.10;0.10;;;;;;;;;;5025529;28;20120;-71
2022/07/06 12:05:32;;;;;;;0.17;0.17;;;;;;;;;;5030117;28;20042;-71
2022/07/06 12:08:08;;;;;;;0.45;0.20;;;;;;;;;;5022847;28;20061;-71
2022/07/06 12:10:38;;;;;;;0.20;0.20;;;;;;;;;;5026030;28;20057;-71
2022/07/06 12:16:40;;;;;;;0.20;0.20;;;;;;;;;;5024957;28;20400;-70
2022/07/06 12:19:11;;;;;;;0.13;0.10;;;;;;;;;;5024345;28;20582;-70
2022/07/06 12:21:44;;;;;;;0.10;0.10;;;;;;;;;;5015766;28;20046;-70
2022/07/06 12:24:18;;;;;;;0.10;0.10;;;;;;;;;;5017621;28;20081;-70
2022/07/06 12:26:49;;;;;;;0.10;0.10;;;;;;;;;;5024464;28;20153;-71
2022/07/06 12:29:18;;;;;;;1.50;0.40;;;;;;;;;;5029009;28;20060;-71
2022/07/06 12:31:50;;;;;;;1.48;0.15;;;;;;;;;;5028591;28;20049;-70
2022/07/06 12:34:19;;;;;;;0.22;0.20;;;;;;;;;;5025624;28;20528;-72
2022/07/06 12:36:49;;;;;;;0.43;0.30;;;;;;;;;;5025286;28;20053;-68
2022/07/06 12:39:18;;;;;;;0.30;0.30;;;;;;;;;;5029607;28;20400;-69
2022/07/06 12:41:49;;;;;;;0.28;0.28;;;;;;;;;;5027400;28;20049;-70
2022/07/06 12:44:19;;;;;;;0.17;0.10;;;;;;;;;;5029357;28;20042;-70
2022/07/06 12:46:48;;;;;;;0.63;0.10;;;;;;;;;;5032875;28;20108;-70
2022/07/06 12:49:22;;;;;;;0.40;0.40;;;;;;;;;;5022767;28;20048;-70
2022/07/06 12:51:55;;;;;;;0.20;0.20;;;;;;;;;;5014168;28;20512;-71
2022/07/06 12:54:24;;;;;;;0.40;0.38;;;;;;;;;;5019823;28;20147;-70
2022/07/06 12:57:01;;;;;;;0.45;0.30;;;;;;;;;;5015058;28;20049;-70
2022/07/06 12:59:30;;;;;;;0.10;0.10;;;;;;;;;;5023268;28;20077;-71
2022/07/06 13:01:58;;;;;;;0.30;0.25;;;;;;;;;;5015464;28;20046;-68
2022/07/06 13:04:28;;;;;;;0.35;0.20;;;;;;;;;;5014639;28;20045;-68
2022/07/06 13:06:57;;;;;;;0.15;0.15;;;;;;;;;;5019410;28;20054;-70
2022/07/06 13:09:34;;;;;;;1.10;0.50;;;;;;;;;;5022080;28;20041;-71
2022/07/06 13:12:04;;;;;;;0.20;0.15;;;;;;;;;;5022084;28;20041;-71
2022/07/06 13:14:33;;;;;;;0.20;0.13;;;;;;;;;;5022372;28;20048;-71
2022/07/06 13:17:01;;;;;;;0.60;0.60;;;;;;;;;;5017328;28;21402;-70
2022/07/06 13:19:30;;;;;;;1.05;0.73;;;;;;;;;;5025532;28;20056;-71
2022/07/06 13:21:58;;;;;;;0.25;0.25;;;;;;;;;;5031804;28;20136;-70
2022/07/06 13:24:27;;;;;;;0.38;0.38;;;;;;;;;;5020490;28;20073;-71
2022/07/06 13:26:57;;;;;;;0.38;0.38;;;;;;;;;;5018571;28;20148;-70
2022/07/06 13:29:27;;;;;;;0.25;0.25;;;;;;;;;;5015382;28;20088;-71
2022/07/06 13:31:55;;;;;;;0.20;0.20;;;;;;;;;;5018434;28;20050;-70
2022/07/06 13:34:24;;;;;;;0.20;0.20;;;;;;;;;;5020781;28;20041;-70
2022/07/06 13:36:53;;;;;;;0.30;0.30;;;;;;;;;;5013420;28;20124;-70
2022/07/06 13:39:21;;;;;;;0.40;0.30;;;;;;;;;;5017337;28;20092;-69
2022/07/06 13:41:50;;;;;;;0.20;0.20;;;;;;;;;;5019578;28;20045;-72
2022/07/06 13:44:19;;;;;;;0.20;0.20;;;;;;;;;;5020871;28;20054;-70
2022/07/06 13:46:49;;;;;;;0.70;0.28;;;;;;;;;;5012832;28;20050;-70
2022/07/06 13:49:17;;;;;;;0.30;0.22;;;;;;;;;;5018054;28;20049;-70
2022/07/06 13:51:46;;;;;;;0.20;0.20;;;;;;;;;;5013253;28;20050;-70
2022/07/06 13:54:15;;;;;;;0.30;0.30;;;;;;;;;;5028463;28;20042;-69
2022/07/06 13:56:43;;;;;;;0.20;0.20;;;;;;;;;;5012405;28;20065;-69
2022/07/06 13:59:12;;;;;;;0.50;0.32;;;;;;;;;;5030781;28;20057;-69
2022/07/06 14:01:40;;;;;;;0.20;0.20;;;;;;;;;;5031088;28;20112;-70
2022/07/06 14:04:10;;;;;;;0.15;0.15;;;;;;;;;;5026953;28;20458;-69
2022/07/06 14:06:39;;;;;;;0.10;0.10;;;;;;;;;;5023452;28;20061;-70
2022/07/06 14:09:07;;;;;;;1.05;0.20;;;;;;;;;;5031138;28;20385;-70
2022/07/06 14:11:36;;;;;;;0.60;0.28;;;;;;;;;;5029096;28;20045;-70
2022/07/06 14:14:06;;;;;;;0.20;0.20;;;;;;;;;;5030365;28;20056;-70
2022/07/06 14:16:35;;;;;;;0.10;0.10;;;;;;;;;;5025917;28;20057;-69
2022/07/06 14:19:04;;;;;;;0.10;0.10;;;;;;;;;;5031210;28;20524;-69
2022/07/06 14:21:34;;;;;;;0.65;0.17;;;;;;;;;;5030808;28;20053;-69
2022/07/06 14:24:02;;;;;;;0.28;0.28;;;;;;;;;;5024205;28;20053;-70
2022/07/06 14:26:31;;;;;;;0.32;0.20;;;;;;;;;;5018715;28;20446;-71
2022/07/06 14:29:00;;;;;;;0.17;0.17;;;;;;;;;;5023980;28;20143;-70
2022/07/06 14:31:28;;;;;;;0.10;0.10;;;;;;;;;;5016597;28;20053;-70
2022/07/06 14:33:57;;;;;;;0.30;0.30;;;;;;;;;;5022356;28;20046;-70
2022/07/06 14:36:25;;;;;;;0.30;0.20;;;;;;;;;;5020804;28;20478;-70
2022/07/06 14:38:56;;;;;;;0.10;0.10;;;;;;;;;;5025348;28;20056;-69
2022/07/06 14:41:24;;;;;;;0.30;0.15;;;;;;;;;;5029122;28;20386;-69
2022/07/06 14:43:52;;;;;;;0.08;0.08;;;;;;;;;;5030466;28;20057;-70
2022/07/06 14:46:21;;;;;;;0.25;0.22;;;;;;;;;;5027900;28;20057;-70
2022/07/06 14:48:50;;;;;;;0.22;0.22;;;;;;;;;;5005806;28;20544;-70
2022/07/06 14:51:19;;;;;;;0.30;0.30;;;;;;;;;;5007477;28;20379;-71
2022/07/06 14:53:48;;;;;;;0.30;0.20;;;;;;;;;;5010040;28;20054;-69
2022/07/06 14:56:18;;;;;;;0.20;0.10;;;;;;;;;;5009938;28;20100;-70
2022/07/06 14:58:46;;;;;;;0.60;0.20;;;;;;;;;;5011428;28;20050;-69
2022/07/06 15:01:35;;;;;;;1.45;0.50;;;;;;;;;;5010531;28;20052;-70
2022/07/06 15:04:04;;;;;;;0.20;0.20;;;;;;;;;;5010319;28;20405;-70
2022/07/06 15:06:32;;;;;;;0.10;0.10;;;;;;;;;;5009401;28;20096;-69
2022/07/06 15:09:21;;;;;;;0.40;0.40;;;;;;;;;;5010907;28;20060;-70
2022/07/06 15:11:51;;;;;;;0.15;0.15;;;;;;;;;;5006319;28;20041;-70